sensor_id;sensor_type;location;lat;lon;timestamp;temperature;humidity
5196;DHT22;2617;51.006;12.436;2022-07-06T00:00:41;15.60;99.90
5196;DHT22;2617;51.006;12.436;2022-07-06T00:05:44;15.40;99.90
5196;DHT22;2617;51.006;12.436;2022-07-06T00:10:48;15.40;99.90
5196;DHT22;2617;51.006;12.436;2022-07-06T00:21:10;15.30;99.90
5196;DHT22;2617;51.006;12.436;2022-07-06T00:26:13;15.30;99.90
5196;DHT22;2617;51.006;12.436;2022-07-06T00:31:16;15.20;99.90
5196;DHT22;2617;51.006;12.436;2022-07-06T00:36:19;15.10;99.90
5196;DHT22;2617;51.006;12.436;2022-07-06T00:41:22;15.10;99.90
5196;DHT22;2617;51.006;12.436;2022-07-06T00:46:28;15.10;99.90
5196;DHT22;2617;51.006;12.436;2022-07-06T00:51:30;15.20;99.90
5196;DHT22;2617;51.006;12.436;2022-07-06T00:56:33;15.20;99.90
5196;DHT22;2617;51.006;12.436;2022-07-06T01:01:43;15.20;99.90
5196;DHT22;2617;51.006;12.436;2022-07-06T01:06:45;15.20;99.90
5196;DHT22;2617;51.006;12.436;2022-07-06T01:11:48;15.20;99.90
5196;DHT22;2617;51.006;12.436;2022-07-06T01:16:50;15.10;99.90
5196;DHT22;2617;51.006;12.436;2022-07-06T01:21:53;15.10;99.90
5196;DHT22;2617;51.006;12.436;2022-07-06T01:26:55;15.10;99.90
5196;DHT22;2617;51.006;12.436;2022-07-06T01:31:58;15.00;99.90
5196;DHT22;2617;51.006;12.436;2022-07-06T01:37:00;15.00;99.90
5196;DHT22;2617;51.006;12.436;2022-07-06T01:42:03;15.00;99.90
5196;DHT22;2617;51.006;12.436;2022-07-06T01:47:05;15.00;99.90
5196;DHT22;2617;51.006;12.436;2022-07-06T01:52:08;15.00;99.90
5196;DHT22;2617;51.006;12.436;2022-07-06T01:57:10;14.90;99.90
5196;DHT22;2617;51.006;12.436;2022-07-06T02:02:13;14.80;99.90
5196;DHT22;2617;51.006;12.436;2022-07-06T02:07:15;14.70;99.90
5196;DHT22;2617;51.006;12.436;2022-07-06T02:12:19;14.60;99.90
5196;DHT22;2617;51.006;12.436;2022-07-06T02:17:21;14.50;99.90
5196;DHT22;2617;51.006;12.436;2022-07-06T02:22:23;14.50;99.90
5196;DHT22;2617;51.006;12.436;2022-07-06T02:27:26;14.40;99.90
5196;DHT22;2617;51.006;12.436;2022-07-06T02:32:28;14.40;99.90
5196;DHT22;2617;51.006;12.436;2022-07-06T02:37:31;14.30;99.90
5196;DHT22;2617;51.006;12.436;2022-07-06T02:42:34;14.30;99.90
5196;DHT22;2617;51.006;12.436;2022-07-06T02:47:36;14.30;99.90
5196;DHT22;2617;51.006;12.436;2022-07-06T02:52:39;14.30;99.90
5196;DHT22;2617;51.006;12.436;2022-07-06T02:57:41;14.30;99.90
5196;DHT22;2617;51.006;12.436;2022-07-06T03:02:43;14.20;99.90
5196;DHT22;2617;51.006;12.436;2022-07-06T03:07:46;14.10;99.90
5196;DHT22;2617;51.006;12.436;2022-07-06T03:12:48;14.00;99.90
5196;DHT22;2617;51.006;12.436;2022-07-06T03:17:51;13.90;99.90
5196;DHT22;2617;51.006;12.436;2022-07-06T03:22:53;13.80;99.90
5196;DHT22;2617;51.006;12.436;2022-07-06T03:27:55;13.70;99.90
5196;DHT22;2617;51.006;12.436;2022-07-06T03:32:58;13.80;99.90
5196;DHT22;2617;51.006;12.436;2022-07-06T03:38:02;14.20;99.90
5196;DHT22;2617;51.006;12.436;2022-07-06T03:43:04;14.10;99.90
5196;DHT22;2617;51.006;12.436;2022-07-06T03:48:06;14.80;99.90
5196;DHT22;2617;51.006;12.436;2022-07-06T03:53:09;14.90;99.90
5196;DHT22;2617;51.006;12.436;2022-07-06T03:58:11;15.50;99.90
5196;DHT22;2617;51.006;12.436;2022-07-06T04:03:14;16.80;99.90
5196;DHT22;2617;51.006;12.436;2022-07-06T04:08:18;16.80;99.90
5196;DHT22;2617;51.006;12.436;2022-07-06T04:13:21;17.50;99.90
5196;DHT22;2617;51.006;12.436;2022-07-06T04:18:24;19.00;99.90
5196;DHT22;2617;51.006;12.436;2022-07-06T04:23:27;19.00;99.90
5196;DHT22;2617;51.006;12.436;2022-07-06T04:28:29;19.90;98.30
5196;DHT22;2617;51.006;12.436;2022-07-06T04:33:32;19.40;98.50
5196;DHT22;2617;51.006;12.436;2022-07-06T04:38:34;19.40;99.30
5196;DHT22;2617;51.006;12.436;2022-07-06T04:43:37;20.30;97.90
5196;DHT22;2617;51.006;12.436;2022-07-06T04:48:39;20.60;96.00
5196;DHT22;2617;51.006;12.436;2022-07-06T04:53:42;20.80;96.50
5196;DHT22;2617;51.006;12.436;2022-07-06T04:58:45;21.60;93.60
5196;DHT22;2617;51.006;12.436;2022-07-06T05:03:47;21.50;93.50
5196;DHT22;2617;51.006;12.436;2022-07-06T05:08:50;20.90;96.80
5196;DHT22;2617;51.006;12.436;2022-07-06T05:13:52;21.90;94.40
5196;DHT22;2617;51.006;12.436;2022-07-06T05:18:55;21.60;93.70
5196;DHT22;2617;51.006;12.436;2022-07-06T05:23:57;20.70;96.00
5196;DHT22;2617;51.006;12.436;2022-07-06T05:29:00;21.60;94.60
5196;DHT22;2617;51.006;12.436;2022-07-06T05:34:03;22.10;93.00
5196;DHT22;2617;51.006;12.436;2022-07-06T05:39:05;22.00;93.90
5196;DHT22;2617;51.006;12.436;2022-07-06T05:44:08;21.20;94.70
5196;DHT22;2617;51.006;12.436;2022-07-06T05:49:10;20.40;95.00
5196;DHT22;2617;51.006;12.436;2022-07-06T05:54:18;19.60;95.90
5196;DHT22;2617;51.006;12.436;2022-07-06T05:59:21;18.80;99.50
5196;DHT22;2617;51.006;12.436;2022-07-06T06:04:24;18.70;99.50
5196;DHT22;2617;51.006;12.436;2022-07-06T06:09:26;18.40;98.50
5196;DHT22;2617;51.006;12.436;2022-07-06T06:14:29;18.10;99.90
5196;DHT22;2617;51.006;12.436;2022-07-06T06:19:31;18.00;99.60
5196;DHT22;2617;51.006;12.436;2022-07-06T06:24:34;17.80;99.90
5196;DHT22;2617;51.006;12.436;2022-07-06T06:29:37;17.80;99.90
5196;DHT22;2617;51.006;12.436;2022-07-06T06:34:39;17.90;99.40
5196;DHT22;2617;51.006;12.436;2022-07-06T06:39:41;18.10;98.80
5196;DHT22;2617;51.006;12.436;2022-07-06T06:44:44;18.00;98.80
5196;DHT22;2617;51.006;12.436;2022-07-06T06:49:46;17.90;98.20
5196;DHT22;2617;51.006;12.436;2022-07-06T06:54:51;17.40;98.00
5196;DHT22;2617;51.006;12.436;2022-07-06T06:59:53;17.40;97.90
5196;DHT22;2617;51.006;12.436;2022-07-06T07:04:56;17.20;97.80
5196;DHT22;2617;51.006;12.436;2022-07-06T07:09:58;17.00;98.60
5196;DHT22;2617;51.006;12.436;2022-07-06T07:15:01;17.00;99.90
5196;DHT22;2617;51.006;12.436;2022-07-06T07:20:04;17.00;99.90
5196;DHT22;2617;51.006;12.436;2022-07-06T07:25:07;17.10;99.50
5196;DHT22;2617;51.006;12.436;2022-07-06T07:30:10;17.30;99.50
5196;DHT22;2617;51.006;12.436;2022-07-06T07:35:13;17.70;98.40
5196;DHT22;2617;51.006;12.436;2022-07-06T07:40:15;18.00;96.40
5196;DHT22;2617;51.006;12.436;2022-07-06T07:45:18;18.30;95.40
5196;DHT22;2617;51.006;12.436;2022-07-06T07:50:21;18.80;93.40
5196;DHT22;2617;51.006;12.436;2022-07-06T07:55:23;18.90;92.90
5196;DHT22;2617;51.006;12.436;2022-07-06T08:00:26;19.30;92.80
5196;DHT22;2617;51.006;12.436;2022-07-06T08:05:28;18.60;93.10
5196;DHT22;2617;51.006;12.436;2022-07-06T08:10:30;18.40;94.10
5196;DHT22;2617;51.006;12.436;2022-07-06T08:15:34;19.00;93.50
5196;DHT22;2617;51.006;12.436;2022-07-06T08:20:37;19.50;92.20
5196;DHT22;2617;51.006;12.436;2022-07-06T08:25:40;19.80;91.10
5196;DHT22;2617;51.006;12.436;2022-07-06T08:30:43;19.80;91.10
5196;DHT22;2617;51.006;12.436;2022-07-06T08:35:45;20.20;91.60
5196;DHT22;2617;51.006;12.436;2022-07-06T08:40:48;20.20;90.00
5196;DHT22;2617;51.006;12.436;2022-07-06T08:45:52;19.60;90.90
5196;DHT22;2617;51.006;12.436;2022-07-06T08:50:54;21.00;90.10
5196;DHT22;2617;51.006;12.436;2022-07-06T08:55:57;21.00;90.10
5196;DHT22;2617;51.006;12.436;2022-07-06T09:00:59;21.10;88.10
5196;DHT22;2617;51.006;12.436;2022-07-06T09:06:02;21.50;88.00
5196;DHT22;2617;51.006;12.436;2022-07-06T09:11:04;21.90;86.00
5196;DHT22;2617;51.006;12.436;2022-07-06T09:16:11;21.80;83.20
5196;DHT22;2617;51.006;12.436;2022-07-06T09:21:22;21.50;82.60
5196;DHT22;2617;51.006;12.436;2022-07-06T09:26:26;21.60;81.10
5196;DHT22;2617;51.006;12.436;2022-07-06T09:31:29;21.80;80.20
5196;DHT22;2617;51.006;12.436;2022-07-06T09:36:42;21.60;79.60
5196;DHT22;2617;51.006;12.436;2022-07-06T09:41:45;22.20;80.10
5196;DHT22;2617;51.006;12.436;2022-07-06T09:46:47;22.00;78.70
5196;DHT22;2617;51.006;12.436;2022-07-06T09:51:52;21.40;80.50
5196;DHT22;2617;51.006;12.436;2022-07-06T09:56:54;21.00;82.40
5196;DHT22;2617;51.006;12.436;2022-07-06T10:01:58;21.00;82.40
5196;DHT22;2617;51.006;12.436;2022-07-06T10:07:01;21.10;80.20
5196;DHT22;2617;51.006;12.436;2022-07-06T10:12:03;21.10;80.20
5196;DHT22;2617;51.006;12.436;2022-07-06T10:17:06;22.10;77.80
5196;DHT22;2617;51.006;12.436;2022-07-06T10:22:09;22.60;75.30
5196;DHT22;2617;51.006;12.436;2022-07-06T10:27:12;22.60;74.70
5196;DHT22;2617;51.006;12.436;2022-07-06T10:32:16;22.10;77.50
5196;DHT22;2617;51.006;12.436;2022-07-06T10:37:24;21.90;79.30
5196;DHT22;2617;51.006;12.436;2022-07-06T10:42:38;22.40;74.40
5196;DHT22;2617;51.006;12.436;2022-07-06T10:47:45;22.70;74.50
5196;DHT22;2617;51.006;12.436;2022-07-06T10:52:49;22.70;74.50
5196;DHT22;2617;51.006;12.436;2022-07-06T10:57:52;23.50;72.30
5196;DHT22;2617;51.006;12.436;2022-07-06T11:02:55;23.50;72.20
5196;DHT22;2617;51.006;12.436;2022-07-06T11:08:00;22.60;73.30
5196;DHT22;2617;51.006;12.436;2022-07-06T11:13:00;22.10;74.90
5196;DHT22;2617;51.006;12.436;2022-07-06T11:18:10;23.10;70.90
5196;DHT22;2617;51.006;12.436;2022-07-06T11:23:12;23.10;70.80
5196;DHT22;2617;51.006;12.436;2022-07-06T11:28:16;22.90;72.30
5196;DHT22;2617;51.006;12.436;2022-07-06T11:33:27;22.90;72.30
5196;DHT22;2617;51.006;12.436;2022-07-06T11:38:29;21.70;74.80
5196;DHT22;2617;51.006;12.436;2022-07-06T11:43:32;20.90;77.30
5196;DHT22;2617;51.006;12.436;2022-07-06T11:48:34;20.80;78.10
5196;DHT22;2617;51.006;12.436;2022-07-06T11:53:37;21.00;75.90
5196;DHT22;2617;51.006;12.436;2022-07-06T11:58:39;21.10;77.50
5196;DHT22;2617;51.006;12.436;2022-07-06T12:03:42;21.60;76.20
5196;DHT22;2617;51.006;12.436;2022-07-06T12:08:45;21.90;76.00
5196;DHT22;2617;51.006;12.436;2022-07-06T12:13:48;23.90;69.90
5196;DHT22;2617;51.006;12.436;2022-07-06T12:18:50;23.80;69.70
5196;DHT22;2617;51.006;12.436;2022-07-06T12:23:54;22.90;71.30
5196;DHT22;2617;51.006;12.436;2022-07-06T12:29:03;22.70;72.80
5196;DHT22;2617;51.006;12.436;2022-07-06T12:34:04;23.70;67.60
5196;DHT22;2617;51.006;12.436;2022-07-06T12:39:10;24.20;68.40
5196;DHT22;2617;51.006;12.436;2022-07-06T12:44:13;24.20;67.70
5196;DHT22;2617;51.006;12.436;2022-07-06T12:49:18;24.20;66.40
5196;DHT22;2617;51.006;12.436;2022-07-06T12:54:23;23.30;68.00
5196;DHT22;2617;51.006;12.436;2022-07-06T12:59:26;23.30;67.90
5196;DHT22;2617;51.006;12.436;2022-07-06T13:04:29;23.00;67.70
5196;DHT22;2617;51.006;12.436;2022-07-06T13:09:31;22.80;68.20
5196;DHT22;2617;51.006;12.436;2022-07-06T13:14:33;22.60;67.20
5196;DHT22;2617;51.006;12.436;2022-07-06T13:19:36;23.00;67.10
5196;DHT22;2617;51.006;12.436;2022-07-06T13:24:38;23.70;65.30
5196;DHT22;2617;51.006;12.436;2022-07-06T13:29:41;23.30;64.10
5196;DHT22;2617;51.006;12.436;2022-07-06T13:34:43;22.40;67.40
5196;DHT22;2617;51.006;12.436;2022-07-06T13:39:45;23.00;65.70
5196;DHT22;2617;51.006;12.436;2022-07-06T13:44:48;23.40;64.10
5196;DHT22;2617;51.006;12.436;2022-07-06T13:49:50;23.90;62.10
5196;DHT22;2617;51.006;12.436;2022-07-06T13:54:53;24.40;59.60
5196;DHT22;2617;51.006;12.436;2022-07-06T13:59:55;23.50;61.50
5196;DHT22;2617;51.006;12.436;2022-07-06T14:04:58;22.80;61.30
5196;DHT22;2617;51.006;12.436;2022-07-06T14:10:01;23.20;61.80
5196;DHT22;2617;51.006;12.436;2022-07-06T14:15:04;23.20;61.50
5196;DHT22;2617;51.006;12.436;2022-07-06T14:20:08;24.00;58.80
5196;DHT22;2617;51.006;12.436;2022-07-06T14:25:11;24.00;58.80
5196;DHT22;2617;51.006;12.436;2022-07-06T14:30:14;23.80;59.50
5196;DHT22;2617;51.006;12.436;2022-07-06T14:35:16;24.20;59.10
5196;DHT22;2617;51.006;12.436;2022-07-06T14:40:19;24.80;56.80
5196;DHT22;2617;51.006;12.436;2022-07-06T14:45:22;24.70;56.70
5196;DHT22;2617;51.006;12.436;2022-07-06T14:50:24;24.30;56.80
5196;DHT22;2617;51.006;12.436;2022-07-06T14:55:27;23.80;56.50
5196;DHT22;2617;51.006;12.436;2022-07-06T15:00:30;23.80;56.80
5196;DHT22;2617;51.006;12.436;2022-07-06T15:05:33;23.80;56.80
5196;DHT22;2617;51.006;12.436;2022-07-06T15:10:35;24.10;55.20
5196;DHT22;2617;51.006;12.436;2022-07-06T15:15:38;24.10;55.40
5196;DHT22;2617;51.006;12.436;2022-07-06T15:20:40;23.30;56.40
5196;DHT22;2617;51.006;12.436;2022-07-06T15:25:42;23.00;56.80
5196;DHT22;2617;51.006;12.436;2022-07-06T15:30:46;23.20;56.50
5196;DHT22;2617;51.006;12.436;2022-07-06T15:35:48;23.20;56.50
5196;DHT22;2617;51.006;12.436;2022-07-06T15:40:51;22.80;57.10
5196;DHT22;2617;51.006;12.436;2022-07-06T15:45:55;22.70;56.80
5196;DHT22;2617;51.006;12.436;2022-07-06T15:50:58;22.60;56.70
5196;DHT22;2617;51.006;12.436;2022-07-06T15:56:00;22.70;57.90
5196;DHT22;2617;51.006;12.436;2022-07-06T16:01:03;22.10;57.50
5196;DHT22;2617;51.006;12.436;2022-07-06T16:06:06;22.10;57.50
5196;DHT22;2617;51.006;12.436;2022-07-06T16:11:09;21.80;58.90
5196;DHT22;2617;51.006;12.436;2022-07-06T16:16:12;22.10;59.20
5196;DHT22;2617;51.006;12.436;2022-07-06T16:21:14;22.10;59.20
5196;DHT22;2617;51.006;12.436;2022-07-06T16:26:17;21.70;58.20
5196;DHT22;2617;51.006;12.436;2022-07-06T16:31:20;21.70;58.20
5196;DHT22;2617;51.006;12.436;2022-07-06T16:36:22;21.40;59.40
5196;DHT22;2617;51.006;12.436;2022-07-06T16:41:25;21.20;60.50
5196;DHT22;2617;51.006;12.436;2022-07-06T16:46:28;21.50;59.70
5196;DHT22;2617;51.006;12.436;2022-07-06T16:51:30;21.30;60.00
5196;DHT22;2617;51.006;12.436;2022-07-06T16:56:32;21.10;60.30
5196;DHT22;2617;51.006;12.436;2022-07-06T17:01:35;21.20;61.20
5196;DHT22;2617;51.006;12.436;2022-07-06T17:06:37;21.30;59.80
5196;DHT22;2617;51.006;12.436;2022-07-06T17:11:40;21.30;60.30
5196;DHT22;2617;51.006;12.436;2022-07-06T17:16:42;21.00;62.40
5196;DHT22;2617;51.006;12.436;2022-07-06T17:21:45;21.10;61.70
5196;DHT22;2617;51.006;12.436;2022-07-06T17:26:47;21.00;61.20
5196;DHT22;2617;51.006;12.436;2022-07-06T17:31:49;20.80;62.20
5196;DHT22;2617;51.006;12.436;2022-07-06T17:36:52;20.70;62.60
5196;DHT22;2617;51.006;12.436;2022-07-06T17:41:54;20.80;63.00
5196;DHT22;2617;51.006;12.436;2022-07-06T17:46:58;20.70;62.60
5196;DHT22;2617;51.006;12.436;2022-07-06T17:52:01;20.80;63.00
5196;DHT22;2617;51.006;12.436;2022-07-06T17:57:04;20.80;63.00
5196;DHT22;2617;51.006;12.436;2022-07-06T18:02:06;21.00;60.70
5196;DHT22;2617;51.006;12.436;2022-07-06T18:07:09;20.90;62.10
5196;DHT22;2617;51.006;12.436;2022-07-06T18:12:12;20.90;62.60
5196;DHT22;2617;51.006;12.436;2022-07-06T18:17:15;20.90;62.50
5196;DHT22;2617;51.006;12.436;2022-07-06T18:22:17;21.00;63.00
5196;DHT22;2617;51.006;12.436;2022-07-06T18:27:19;20.90;62.90
5196;DHT22;2617;51.006;12.436;2022-07-06T18:32:22;20.60;63.00
5196;DHT22;2617;51.006;12.436;2022-07-06T18:37:24;20.40;63.70
5196;DHT22;2617;51.006;12.436;2022-07-06T18:42:27;19.80;64.60
5196;DHT22;2617;51.006;12.436;2022-07-06T18:47:29;19.50;66.00
5196;DHT22;2617;51.006;12.436;2022-07-06T18:52:32;19.20;67.10
5196;DHT22;2617;51.006;12.436;2022-07-06T18:57:34;18.80;68.00
5196;DHT22;2617;51.006;12.436;2022-07-06T19:02:37;18.50;68.80
5196;DHT22;2617;51.006;12.436;2022-07-06T19:07:39;18.30;69.40
5196;DHT22;2617;51.006;12.436;2022-07-06T19:12:42;18.00;70.80
5196;DHT22;2617;51.006;12.436;2022-07-06T19:17:45;18.00;70.80
5196;DHT22;2617;51.006;12.436;2022-07-06T19:22:48;17.70;72.00
5196;DHT22;2617;51.006;12.436;2022-07-06T19:27:50;17.70;72.80
5196;DHT22;2617;51.006;12.436;2022-07-06T19:32:53;17.40;74.00
5196;DHT22;2617;51.006;12.436;2022-07-06T19:37:56;17.40;74.00
5196;DHT22;2617;51.006;12.436;2022-07-06T19:43:00;17.20;74.60
5196;DHT22;2617;51.006;12.436;2022-07-06T19:48:02;17.10;75.30
5196;DHT22;2617;51.006;12.436;2022-07-06T19:53:05;16.90;75.70
5196;DHT22;2617;51.006;12.436;2022-07-06T19:58:07;16.80;76.70
5196;DHT22;2617;51.006;12.436;2022-07-06T20:03:10;16.70;77.20
5196;DHT22;2617;51.006;12.436;2022-07-06T20:08:12;16.50;78.10
5196;DHT22;2617;51.006;12.436;2022-07-06T20:13:15;16.30;79.10
5196;DHT22;2617;51.006;12.436;2022-07-06T20:18:17;16.20;79.50
5196;DHT22;2617;51.006;12.436;2022-07-06T20:23:20;16.00;79.40
5196;DHT22;2617;51.006;12.436;2022-07-06T20:28:22;15.90;79.10
5196;DHT22;2617;51.006;12.436;2022-07-06T20:33:24;15.80;79.40
5196;DHT22;2617;51.006;12.436;2022-07-06T20:38:27;15.70;80.20
5196;DHT22;2617;51.006;12.436;2022-07-06T20:43:30;15.50;80.60
5196;DHT22;2617;51.006;12.436;2022-07-06T20:48:33;15.40;80.90
5196;DHT22;2617;51.006;12.436;2022-07-06T20:53:36;15.00;85.30
5196;DHT22;2617;51.006;12.436;2022-07-06T20:58:38;15.00;85.20
5196;DHT22;2617;51.006;12.436;2022-07-06T21:03:41;14.80;88.30
5196;DHT22;2617;51.006;12.436;2022-07-06T21:08:43;14.60;90.40
5196;DHT22;2617;51.006;12.436;2022-07-06T21:13:46;14.40;91.40
5196;DHT22;2617;51.006;12.436;2022-07-06T21:18:48;14.20;92.50
5196;DHT22;2617;51.006;12.436;2022-07-06T21:23:50;14.00;93.50
5196;DHT22;2617;51.006;12.436;2022-07-06T21:28:53;13.80;94.30
5196;DHT22;2617;51.006;12.436;2022-07-06T21:33:55;13.70;94.80
5196;DHT22;2617;51.006;12.436;2022-07-06T21:38:58;13.50;95.90
5196;DHT22;2617;51.006;12.436;2022-07-06T21:44:02;13.40;96.40
5196;DHT22;2617;51.006;12.436;2022-07-06T21:49:04;13.30;96.30
5196;DHT22;2617;51.006;12.436;2022-07-06T21:54:07;13.30;97.10
5196;DHT22;2617;51.006;12.436;2022-07-06T21:59:09;13.10;97.60
5196;DHT22;2617;51.006;12.436;2022-07-06T22:04:12;13.10;98.20
5196;DHT22;2617;51.006;12.436;2022-07-06T22:09:14;13.00;98.40
5196;DHT22;2617;51.006;12.436;2022-07-06T22:14:16;12.90;98.70
5196;DHT22;2617;51.006;12.436;2022-07-06T22:19:20;12.70;99.90
5196;DHT22;2617;51.006;12.436;2022-07-06T22:24:22;12.70;99.80
5196;DHT22;2617;51.006;12.436;2022-07-06T22:29:25;12.60;99.90
5196;DHT22;2617;51.006;12.436;2022-07-06T22:34:27;12.50;99.90
5196;DHT22;2617;51.006;12.436;2022-07-06T22:39:30;12.40;99.90
5196;DHT22;2617;51.006;12.436;2022-07-06T22:44:33;12.30;99.90
5196;DHT22;2617;51.006;12.436;2022-07-06T22:49:35;12.30;99.90
5196;DHT22;2617;51.006;12.436;2022-07-06T22:54:37;12.20;99.90
5196;DHT22;2617;51.006;12.436;2022-07-06T22:59:40;12.10;99.90
5196;DHT22;2617;51.006;12.436;2022-07-06T23:04:42;12.10;99.90
5196;DHT22;2617;51.006;12.436;2022-07-06T23:09:45;12.10;99.90
5196;DHT22;2617;51.006;12.436;2022-07-06T23:14:47;12.10;99.90
5196;DHT22;2617;51.006;12.436;2022-07-06T23:19:49;12.10;99.90
5196;DHT22;2617;51.006;12.436;2022-07-06T23:24:52;12.00;99.90
5196;DHT22;2617;51.006;12.436;2022-07-06T23:29:55;12.00;99.90
5196;DHT22;2617;51.006;12.436;2022-07-06T23:34:58;12.10;99.90
5196;DHT22;2617;51.006;12.436;2022-07-06T23:40:00;12.10;99.90
5196;DHT22;2617;51.006;12.436;2022-07-06T23:45:03;12.10;99.90
5196;DHT22;2617;51.006;12.436;2022-07-06T23:50:06;12.20;99.90
5196;DHT22;2617;51.006;12.436;2022-07-06T23:55:08;12.20;99.90
